sensor_id;sensor_type;location;lat;lon;timestamp;P1;durP1;ratioP1;P2;durP2;ratioP2
80215;SDS011;69532;37.974;23.708;2024-02-23T00:01:23;21.08;;;12.48;;
80215;SDS011;69532;37.974;23.708;2024-02-23T00:03:49;21.52;;;12.85;;
80215;SDS011;69532;37.974;23.708;2024-02-23T00:06:15;21.55;;;12.38;;
80215;SDS011;69532;37.974;23.708;2024-02-23T00:08:41;24.98;;;13.63;;
80215;SDS011;69532;37.974;23.708;2024-02-23T00:11:08;24.48;;;13.40;;
80215;SDS011;69532;37.974;23.708;2024-02-23T00:13:34;24.70;;;14.68;;
80215;SDS011;69532;37.974;23.708;2024-02-23T00:16:01;25.73;;;14.65;;
80215;SDS011;69532;37.974;23.708;2024-02-23T00:18:27;25.40;;;15.82;;
80215;SDS011;69532;37.974;23.708;2024-02-23T00:20:53;28.55;;;16.48;;
80215;SDS011;69532;37.974;23.708;2024-02-23T00:23:19;27.85;;;14.43;;
80215;SDS011;69532;37.974;23.708;2024-02-23T00:25:45;27.92;;;15.15;;
80215;SDS011;69532;37.974;23.708;2024-02-23T00:28:11;24.65;;;15.00;;
80215;SDS011;69532;37.974;23.708;2024-02-23T00:30:37;23.05;;;13.60;;
80215;SDS011;69532;37.974;23.708;2024-02-23T00:33:04;28.35;;;15.25;;
80215;SDS011;69532;37.974;23.708;2024-02-23T00:35:30;24.77;;;13.70;;
80215;SDS011;69532;37.974;23.708;2024-02-23T00:37:56;26.55;;;15.13;;
80215;SDS011;69532;37.974;23.708;2024-02-23T00:40:22;25.92;;;14.73;;
80215;SDS011;69532;37.974;23.708;2024-02-23T00:42:49;23.42;;;14.82;;
80215;SDS011;69532;37.974;23.708;2024-02-23T00:45:15;27.02;;;15.65;;
80215;SDS011;69532;37.974;23.708;2024-02-23T00:47:42;23.15;;;14.88;;
80215;SDS011;69532;37.974;23.708;2024-02-23T00:50:08;26.33;;;15.55;;
80215;SDS011;69532;37.974;23.708;2024-02-23T00:52:36;25.17;;;15.55;;
80215;SDS011;69532;37.974;23.708;2024-02-23T00:55:02;30.08;;;17.60;;
80215;SDS011;69532;37.974;23.708;2024-02-23T00:57:28;29.92;;;17.48;;
80215;SDS011;69532;37.974;23.708;2024-02-23T00:59:58;24.48;;;15.93;;
80215;SDS011;69532;37.974;23.708;2024-02-23T01:02:24;29.63;;;16.42;;
80215;SDS011;69532;37.974;23.708;2024-02-23T01:04:51;27.05;;;16.15;;
80215;SDS011;69532;37.974;23.708;2024-02-23T01:07:22;32.20;;;15.95;;
80215;SDS011;69532;37.974;23.708;2024-02-23T01:09:48;28.08;;;15.50;;
80215;SDS011;69532;37.974;23.708;2024-02-23T01:12:14;25.45;;;13.73;;
80215;SDS011;69532;37.974;23.708;2024-02-23T01:14:41;26.05;;;14.77;;
80215;SDS011;69532;37.974;23.708;2024-02-23T01:17:07;28.98;;;15.85;;
80215;SDS011;69532;37.974;23.708;2024-02-23T01:19:33;25.98;;;15.68;;
80215;SDS011;69532;37.974;23.708;2024-02-23T01:21:59;27.73;;;16.27;;
80215;SDS011;69532;37.974;23.708;2024-02-23T01:24:26;27.00;;;16.00;;
80215;SDS011;69532;37.974;23.708;2024-02-23T01:26:56;25.60;;;14.63;;
80215;SDS011;69532;37.974;23.708;2024-02-23T01:29:23;27.88;;;15.98;;
80215;SDS011;69532;37.974;23.708;2024-02-23T01:31:50;29.65;;;16.02;;
80215;SDS011;69532;37.974;23.708;2024-02-23T01:34:17;26.08;;;14.70;;
80215;SDS011;69532;37.974;23.708;2024-02-23T01:36:43;27.83;;;15.30;;
80215;SDS011;69532;37.974;23.708;2024-02-23T01:39:09;25.10;;;15.85;;
80215;SDS011;69532;37.974;23.708;2024-02-23T01:41:36;26.23;;;15.00;;
80215;SDS011;69532;37.974;23.708;2024-02-23T01:44:02;24.52;;;14.13;;
80215;SDS011;69532;37.974;23.708;2024-02-23T01:46:29;26.35;;;15.50;;
80215;SDS011;69532;37.974;23.708;2024-02-23T01:48:55;25.38;;;15.30;;
80215;SDS011;69532;37.974;23.708;2024-02-23T01:51:22;28.85;;;16.38;;
80215;SDS011;69532;37.974;23.708;2024-02-23T01:53:49;28.15;;;15.63;;
80215;SDS011;69532;37.974;23.708;2024-02-23T01:56:16;31.20;;;17.38;;
80215;SDS011;69532;37.974;23.708;2024-02-23T01:58:46;25.73;;;14.88;;
80215;SDS011;69532;37.974;23.708;2024-02-23T02:01:12;26.20;;;15.80;;
80215;SDS011;69532;37.974;23.708;2024-02-23T02:03:38;26.05;;;15.07;;
80215;SDS011;69532;37.974;23.708;2024-02-23T02:06:05;27.23;;;16.33;;
80215;SDS011;69532;37.974;23.708;2024-02-23T02:08:34;30.95;;;15.68;;
80215;SDS011;69532;37.974;23.708;2024-02-23T02:11:01;27.95;;;15.95;;
80215;SDS011;69532;37.974;23.708;2024-02-23T02:13:28;28.00;;;16.58;;
80215;SDS011;69532;37.974;23.708;2024-02-23T02:15:54;27.73;;;14.60;;
80215;SDS011;69532;37.974;23.708;2024-02-23T02:18:20;27.67;;;15.55;;
80215;SDS011;69532;37.974;23.708;2024-02-23T02:20:50;28.67;;;17.17;;
80215;SDS011;69532;37.974;23.708;2024-02-23T02:23:19;28.52;;;16.75;;
80215;SDS011;69532;37.974;23.708;2024-02-23T02:25:45;27.50;;;15.80;;
80215;SDS011;69532;37.974;23.708;2024-02-23T02:28:17;24.92;;;14.73;;
80215;SDS011;69532;37.974;23.708;2024-02-23T02:30:43;25.83;;;15.23;;
80215;SDS011;69532;37.974;23.708;2024-02-23T02:33:09;28.30;;;15.77;;
80215;SDS011;69532;37.974;23.708;2024-02-23T02:35:35;25.42;;;15.32;;
80215;SDS011;69532;37.974;23.708;2024-02-23T02:38:01;24.65;;;13.77;;
80215;SDS011;69532;37.974;23.708;2024-02-23T02:40:28;22.48;;;13.25;;
80215;SDS011;69532;37.974;23.708;2024-02-23T02:42:54;22.35;;;13.18;;
80215;SDS011;69532;37.974;23.708;2024-02-23T02:45:20;24.65;;;13.85;;
80215;SDS011;69532;37.974;23.708;2024-02-23T02:47:46;23.27;;;13.50;;
80215;SDS011;69532;37.974;23.708;2024-02-23T02:50:12;21.58;;;11.88;;
80215;SDS011;69532;37.974;23.708;2024-02-23T02:52:38;20.23;;;12.65;;
80215;SDS011;69532;37.974;23.708;2024-02-23T02:55:05;21.83;;;12.30;;
80215;SDS011;69532;37.974;23.708;2024-02-23T02:57:31;20.17;;;12.43;;
80215;SDS011;69532;37.974;23.708;2024-02-23T02:59:57;24.55;;;13.20;;
80215;SDS011;69532;37.974;23.708;2024-02-23T03:02:23;22.98;;;13.48;;
80215;SDS011;69532;37.974;23.708;2024-02-23T03:04:50;23.55;;;13.15;;
80215;SDS011;69532;37.974;23.708;2024-02-23T03:07:17;22.35;;;13.38;;
80215;SDS011;69532;37.974;23.708;2024-02-23T03:09:43;23.83;;;13.88;;
80215;SDS011;69532;37.974;23.708;2024-02-23T03:12:10;24.70;;;14.75;;
80215;SDS011;69532;37.974;23.708;2024-02-23T03:14:36;28.00;;;14.63;;
80215;SDS011;69532;37.974;23.708;2024-02-23T03:17:08;24.30;;;14.80;;
80215;SDS011;69532;37.974;23.708;2024-02-23T03:19:35;27.77;;;15.18;;
80215;SDS011;69532;37.974;23.708;2024-02-23T03:22:01;27.23;;;15.43;;
80215;SDS011;69532;37.974;23.708;2024-02-23T03:24:28;25.42;;;14.98;;
80215;SDS011;69532;37.974;23.708;2024-02-23T03:26:54;29.30;;;15.60;;
80215;SDS011;69532;37.974;23.708;2024-02-23T03:29:21;24.02;;;14.57;;
80215;SDS011;69532;37.974;23.708;2024-02-23T03:31:50;30.42;;;15.98;;
80215;SDS011;69532;37.974;23.708;2024-02-23T03:34:16;24.65;;;14.63;;
80215;SDS011;69532;37.974;23.708;2024-02-23T03:36:43;24.63;;;15.10;;
80215;SDS011;69532;37.974;23.708;2024-02-23T03:39:09;23.73;;;14.68;;
80215;SDS011;69532;37.974;23.708;2024-02-23T03:41:35;22.38;;;14.20;;
80215;SDS011;69532;37.974;23.708;2024-02-23T03:44:02;31.42;;;15.77;;
80215;SDS011;69532;37.974;23.708;2024-02-23T03:46:28;26.17;;;13.98;;
80215;SDS011;69532;37.974;23.708;2024-02-23T03:48:54;25.10;;;14.25;;
80215;SDS011;69532;37.974;23.708;2024-02-23T03:51:20;20.30;;;12.23;;
80215;SDS011;69532;37.974;23.708;2024-02-23T03:53:46;23.17;;;12.85;;
80215;SDS011;69532;37.974;23.708;2024-02-23T03:56:12;22.67;;;12.27;;
80215;SDS011;69532;37.974;23.708;2024-02-23T03:58:38;20.42;;;12.63;;
80215;SDS011;69532;37.974;23.708;2024-02-23T04:01:05;22.30;;;12.23;;
80215;SDS011;69532;37.974;23.708;2024-02-23T04:03:31;22.75;;;13.63;;
80215;SDS011;69532;37.974;23.708;2024-02-23T04:05:57;23.10;;;13.75;;
80215;SDS011;69532;37.974;23.708;2024-02-23T04:08:23;22.85;;;12.77;;
80215;SDS011;69532;37.974;23.708;2024-02-23T04:10:49;24.02;;;15.07;;
80215;SDS011;69532;37.974;23.708;2024-02-23T04:13:15;27.92;;;14.40;;
80215;SDS011;69532;37.974;23.708;2024-02-23T04:15:43;27.40;;;14.85;;
80215;SDS011;69532;37.974;23.708;2024-02-23T04:18:09;24.90;;;14.63;;
80215;SDS011;69532;37.974;23.708;2024-02-23T04:20:35;27.40;;;15.85;;
80215;SDS011;69532;37.974;23.708;2024-02-23T04:23:02;22.65;;;13.35;;
80215;SDS011;69532;37.974;23.708;2024-02-23T04:25:28;26.75;;;15.20;;
80215;SDS011;69532;37.974;23.708;2024-02-23T04:27:54;23.33;;;14.02;;
80215;SDS011;69532;37.974;23.708;2024-02-23T04:30:20;32.58;;;15.75;;
80215;SDS011;69532;37.974;23.708;2024-02-23T04:32:46;25.83;;;15.90;;
80215;SDS011;69532;37.974;23.708;2024-02-23T04:35:13;26.90;;;15.80;;
80215;SDS011;69532;37.974;23.708;2024-02-23T04:37:39;30.88;;;16.92;;
80215;SDS011;69532;37.974;23.708;2024-02-23T04:40:09;31.08;;;16.02;;
80215;SDS011;69532;37.974;23.708;2024-02-23T04:42:36;29.42;;;16.75;;
80215;SDS011;69532;37.974;23.708;2024-02-23T04:45:02;30.60;;;18.33;;
80215;SDS011;69532;37.974;23.708;2024-02-23T04:47:28;28.75;;;16.80;;
80215;SDS011;69532;37.974;23.708;2024-02-23T04:49:54;28.67;;;16.67;;
80215;SDS011;69532;37.974;23.708;2024-02-23T04:52:21;27.83;;;15.65;;
80215;SDS011;69532;37.974;23.708;2024-02-23T04:54:47;28.50;;;16.55;;
80215;SDS011;69532;37.974;23.708;2024-02-23T04:57:13;33.45;;;18.80;;
80215;SDS011;69532;37.974;23.708;2024-02-23T04:59:39;28.70;;;16.05;;
80215;SDS011;69532;37.974;23.708;2024-02-23T05:02:05;38.20;;;19.80;;
80215;SDS011;69532;37.974;23.708;2024-02-23T05:04:31;30.45;;;17.35;;
80215;SDS011;69532;37.974;23.708;2024-02-23T05:06:58;30.88;;;17.85;;
80215;SDS011;69532;37.974;23.708;2024-02-23T05:09:24;26.55;;;14.82;;
80215;SDS011;69532;37.974;23.708;2024-02-23T05:11:51;39.58;;;22.23;;
80215;SDS011;69532;37.974;23.708;2024-02-23T05:14:17;35.38;;;20.73;;
80215;SDS011;69532;37.974;23.708;2024-02-23T05:16:43;30.55;;;18.13;;
80215;SDS011;69532;37.974;23.708;2024-02-23T05:19:09;30.95;;;18.60;;
80215;SDS011;69532;37.974;23.708;2024-02-23T05:21:35;34.22;;;19.35;;
80215;SDS011;69532;37.974;23.708;2024-02-23T05:24:01;34.85;;;20.23;;
80215;SDS011;69532;37.974;23.708;2024-02-23T05:26:28;36.25;;;20.70;;
80215;SDS011;69532;37.974;23.708;2024-02-23T05:28:54;28.85;;;14.70;;
80215;SDS011;69532;37.974;23.708;2024-02-23T05:31:20;34.30;;;16.45;;
80215;SDS011;69532;37.974;23.708;2024-02-23T05:34:06;28.90;;;15.13;;
80215;SDS011;69532;37.974;23.708;2024-02-23T05:36:32;37.28;;;18.83;;
80215;SDS011;69532;37.974;23.708;2024-02-23T05:38:58;24.50;;;14.93;;
80215;SDS011;69532;37.974;23.708;2024-02-23T05:41:24;33.42;;;18.38;;
80215;SDS011;69532;37.974;23.708;2024-02-23T05:43:50;32.95;;;18.52;;
80215;SDS011;69532;37.974;23.708;2024-02-23T05:46:16;37.38;;;20.23;;
80215;SDS011;69532;37.974;23.708;2024-02-23T05:48:43;37.63;;;19.98;;
80215;SDS011;69532;37.974;23.708;2024-02-23T05:51:09;37.22;;;20.98;;
80215;SDS011;69532;37.974;23.708;2024-02-23T05:53:35;23.35;;;14.23;;
80215;SDS011;69532;37.974;23.708;2024-02-23T05:56:01;24.55;;;14.57;;
80215;SDS011;69532;37.974;23.708;2024-02-23T05:58:29;25.35;;;14.10;;
80215;SDS011;69532;37.974;23.708;2024-02-23T06:00:55;23.67;;;13.55;;
80215;SDS011;69532;37.974;23.708;2024-02-23T06:03:21;23.77;;;14.52;;
80215;SDS011;69532;37.974;23.708;2024-02-23T06:05:47;20.33;;;11.10;;
80215;SDS011;69532;37.974;23.708;2024-02-23T06:08:13;24.55;;;13.95;;
80215;SDS011;69532;37.974;23.708;2024-02-23T06:10:39;30.67;;;15.73;;
80215;SDS011;69532;37.974;23.708;2024-02-23T06:13:05;25.17;;;16.33;;
80215;SDS011;69532;37.974;23.708;2024-02-23T06:15:31;30.30;;;15.98;;
80215;SDS011;69532;37.974;23.708;2024-02-23T06:17:57;24.40;;;15.45;;
80215;SDS011;69532;37.974;23.708;2024-02-23T06:20:24;25.75;;;15.77;;
80215;SDS011;69532;37.974;23.708;2024-02-23T06:22:50;24.58;;;15.70;;
80215;SDS011;69532;37.974;23.708;2024-02-23T06:25:16;25.13;;;14.68;;
80215;SDS011;69532;37.974;23.708;2024-02-23T06:27:42;28.73;;;15.65;;
80215;SDS011;69532;37.974;23.708;2024-02-23T06:30:08;28.45;;;14.68;;
80215;SDS011;69532;37.974;23.708;2024-02-23T06:32:36;26.40;;;14.63;;
80215;SDS011;69532;37.974;23.708;2024-02-23T06:35:02;23.13;;;14.02;;
80215;SDS011;69532;37.974;23.708;2024-02-23T06:37:28;26.33;;;16.05;;
80215;SDS011;69532;37.974;23.708;2024-02-23T06:39:55;23.90;;;14.63;;
80215;SDS011;69532;37.974;23.708;2024-02-23T06:42:21;24.65;;;15.10;;
80215;SDS011;69532;37.974;23.708;2024-02-23T06:44:47;27.45;;;15.43;;
80215;SDS011;69532;37.974;23.708;2024-02-23T06:47:14;18.30;;;10.30;;
80215;SDS011;69532;37.974;23.708;2024-02-23T06:49:43;21.00;;;11.90;;
80215;SDS011;69532;37.974;23.708;2024-02-23T06:52:10;24.33;;;13.70;;
80215;SDS011;69532;37.974;23.708;2024-02-23T06:54:36;24.60;;;11.13;;
80215;SDS011;69532;37.974;23.708;2024-02-23T06:57:02;25.02;;;14.23;;
80215;SDS011;69532;37.974;23.708;2024-02-23T06:59:29;24.77;;;14.18;;
80215;SDS011;69532;37.974;23.708;2024-02-23T07:01:55;30.27;;;17.17;;
80215;SDS011;69532;37.974;23.708;2024-02-23T07:04:21;25.80;;;17.02;;
80215;SDS011;69532;37.974;23.708;2024-02-23T07:06:47;32.20;;;18.52;;
80215;SDS011;69532;37.974;23.708;2024-02-23T07:09:14;33.55;;;18.83;;
80215;SDS011;69532;37.974;23.708;2024-02-23T07:11:40;31.80;;;17.88;;
80215;SDS011;69532;37.974;23.708;2024-02-23T07:14:09;26.65;;;16.85;;
80215;SDS011;69532;37.974;23.708;2024-02-23T07:16:38;30.73;;;17.10;;
80215;SDS011;69532;37.974;23.708;2024-02-23T07:19:05;27.30;;;15.32;;
80215;SDS011;69532;37.974;23.708;2024-02-23T07:21:32;28.85;;;15.63;;
80215;SDS011;69532;37.974;23.708;2024-02-23T07:23:59;29.27;;;16.55;;
80215;SDS011;69532;37.974;23.708;2024-02-23T07:26:25;24.98;;;14.90;;
80215;SDS011;69532;37.974;23.708;2024-02-23T07:28:53;27.67;;;15.27;;
80215;SDS011;69532;37.974;23.708;2024-02-23T07:31:20;26.02;;;14.43;;
80215;SDS011;69532;37.974;23.708;2024-02-23T07:33:46;22.80;;;13.90;;
80215;SDS011;69532;37.974;23.708;2024-02-23T07:36:16;24.23;;;15.15;;
80215;SDS011;69532;37.974;23.708;2024-02-23T07:38:43;29.42;;;15.57;;
80215;SDS011;69532;37.974;23.708;2024-02-23T07:41:10;31.05;;;17.88;;
80215;SDS011;69532;37.974;23.708;2024-02-23T07:43:38;31.52;;;18.58;;
80215;SDS011;69532;37.974;23.708;2024-02-23T07:46:05;24.17;;;14.98;;
80215;SDS011;69532;37.974;23.708;2024-02-23T07:48:36;22.02;;;13.65;;
80215;SDS011;69532;37.974;23.708;2024-02-23T07:51:02;25.08;;;14.63;;
80215;SDS011;69532;37.974;23.708;2024-02-23T07:53:30;33.70;;;16.33;;
80215;SDS011;69532;37.974;23.708;2024-02-23T07:55:57;23.67;;;13.48;;
80215;SDS011;69532;37.974;23.708;2024-02-23T07:58:25;24.60;;;15.35;;
80215;SDS011;69532;37.974;23.708;2024-02-23T08:00:54;25.08;;;14.88;;
80215;SDS011;69532;37.974;23.708;2024-02-23T08:03:20;25.75;;;14.73;;
80215;SDS011;69532;37.974;23.708;2024-02-23T08:05:46;26.10;;;15.90;;
80215;SDS011;69532;37.974;23.708;2024-02-23T08:08:12;24.55;;;14.95;;
80215;SDS011;69532;37.974;23.708;2024-02-23T08:10:39;20.95;;;13.48;;
80215;SDS011;69532;37.974;23.708;2024-02-23T08:13:05;22.58;;;13.25;;
80215;SDS011;69532;37.974;23.708;2024-02-23T08:15:31;25.75;;;14.73;;
80215;SDS011;69532;37.974;23.708;2024-02-23T08:17:57;25.38;;;16.55;;
80215;SDS011;69532;37.974;23.708;2024-02-23T08:20:23;20.33;;;13.07;;
80215;SDS011;69532;37.974;23.708;2024-02-23T08:22:49;22.77;;;12.57;;
80215;SDS011;69532;37.974;23.708;2024-02-23T08:25:15;21.05;;;12.70;;
80215;SDS011;69532;37.974;23.708;2024-02-23T08:27:42;19.38;;;12.73;;
80215;SDS011;69532;37.974;23.708;2024-02-23T08:30:08;23.33;;;14.10;;
80215;SDS011;69532;37.974;23.708;2024-02-23T08:32:36;24.40;;;14.57;;
80215;SDS011;69532;37.974;23.708;2024-02-23T08:35:02;22.83;;;14.73;;
80215;SDS011;69532;37.974;23.708;2024-02-23T08:37:28;23.55;;;14.88;;
80215;SDS011;69532;37.974;23.708;2024-02-23T08:39:54;26.45;;;15.13;;
80215;SDS011;69532;37.974;23.708;2024-02-23T08:42:21;24.15;;;14.40;;
80215;SDS011;69532;37.974;23.708;2024-02-23T08:44:48;23.48;;;14.48;;
80215;SDS011;69532;37.974;23.708;2024-02-23T08:47:14;23.83;;;13.90;;
80215;SDS011;69532;37.974;23.708;2024-02-23T08:49:40;24.83;;;15.02;;
80215;SDS011;69532;37.974;23.708;2024-02-23T08:52:06;21.48;;;14.52;;
80215;SDS011;69532;37.974;23.708;2024-02-23T08:54:32;25.38;;;15.07;;
80215;SDS011;69532;37.974;23.708;2024-02-23T08:56:58;20.23;;;13.23;;
80215;SDS011;69532;37.974;23.708;2024-02-23T08:59:24;22.70;;;14.32;;
80215;SDS011;69532;37.974;23.708;2024-02-23T09:01:50;26.30;;;15.02;;
80215;SDS011;69532;37.974;23.708;2024-02-23T09:04:17;23.30;;;14.85;;
80215;SDS011;69532;37.974;23.708;2024-02-23T09:06:43;22.83;;;14.85;;
80215;SDS011;69532;37.974;23.708;2024-02-23T09:09:09;27.15;;;14.82;;
80215;SDS011;69532;37.974;23.708;2024-02-23T09:11:35;22.58;;;13.45;;
80215;SDS011;69532;37.974;23.708;2024-02-23T09:14:02;27.77;;;17.38;;
80215;SDS011;69532;37.974;23.708;2024-02-23T09:16:28;21.05;;;13.18;;
80215;SDS011;69532;37.974;23.708;2024-02-23T09:18:54;24.70;;;15.05;;
80215;SDS011;69532;37.974;23.708;2024-02-23T09:21:21;24.58;;;15.30;;
80215;SDS011;69532;37.974;23.708;2024-02-23T09:23:47;22.85;;;13.65;;
80215;SDS011;69532;37.974;23.708;2024-02-23T09:26:13;23.20;;;14.93;;
80215;SDS011;69532;37.974;23.708;2024-02-23T09:28:39;22.38;;;14.27;;
80215;SDS011;69532;37.974;23.708;2024-02-23T09:31:10;20.67;;;14.13;;
80215;SDS011;69532;37.974;23.708;2024-02-23T09:33:36;25.35;;;15.40;;
80215;SDS011;69532;37.974;23.708;2024-02-23T09:36:03;22.10;;;14.20;;
80215;SDS011;69532;37.974;23.708;2024-02-23T09:38:29;33.95;;;22.80;;
80215;SDS011;69532;37.974;23.708;2024-02-23T09:40:57;23.50;;;14.93;;
80215;SDS011;69532;37.974;23.708;2024-02-23T09:43:27;23.08;;;13.75;;
80215;SDS011;69532;37.974;23.708;2024-02-23T09:45:54;25.58;;;14.93;;
80215;SDS011;69532;37.974;23.708;2024-02-23T09:48:22;20.90;;;13.45;;
80215;SDS011;69532;37.974;23.708;2024-02-23T09:50:50;24.00;;;14.73;;
80215;SDS011;69532;37.974;23.708;2024-02-23T09:53:18;23.23;;;14.88;;
80215;SDS011;69532;37.974;23.708;2024-02-23T09:55:47;23.38;;;14.35;;
80215;SDS011;69532;37.974;23.708;2024-02-23T09:58:16;21.55;;;13.77;;
80215;SDS011;69532;37.974;23.708;2024-02-23T10:00:43;21.08;;;14.13;;
80215;SDS011;69532;37.974;23.708;2024-02-23T10:03:09;22.38;;;13.30;;
80215;SDS011;69532;37.974;23.708;2024-02-23T10:05:35;19.20;;;12.80;;
80215;SDS011;69532;37.974;23.708;2024-02-23T10:08:01;19.83;;;12.65;;
80215;SDS011;69532;37.974;23.708;2024-02-23T10:10:34;20.02;;;12.20;;
80215;SDS011;69532;37.974;23.708;2024-02-23T10:13:01;18.88;;;12.82;;
80215;SDS011;69532;37.974;23.708;2024-02-23T10:15:30;19.85;;;12.77;;
80215;SDS011;69532;37.974;23.708;2024-02-23T10:17:56;19.77;;;13.52;;
80215;SDS011;69532;37.974;23.708;2024-02-23T10:20:22;19.52;;;12.73;;
80215;SDS011;69532;37.974;23.708;2024-02-23T10:22:49;19.88;;;13.32;;
80215;SDS011;69532;37.974;23.708;2024-02-23T10:25:15;24.48;;;13.45;;
80215;SDS011;69532;37.974;23.708;2024-02-23T10:27:42;24.85;;;12.93;;
80215;SDS011;69532;37.974;23.708;2024-02-23T10:30:09;20.80;;;12.85;;
80215;SDS011;69532;37.974;23.708;2024-02-23T10:32:38;20.30;;;13.63;;
80215;SDS011;69532;37.974;23.708;2024-02-23T10:35:09;22.98;;;13.23;;
80215;SDS011;69532;37.974;23.708;2024-02-23T10:37:41;18.73;;;12.13;;
80215;SDS011;69532;37.974;23.708;2024-02-23T10:40:11;18.25;;;12.77;;
80215;SDS011;69532;37.974;23.708;2024-02-23T10:42:38;18.08;;;12.65;;
80215;SDS011;69532;37.974;23.708;2024-02-23T10:45:06;16.70;;;11.73;;
80215;SDS011;69532;37.974;23.708;2024-02-23T10:47:33;17.92;;;11.65;;
80215;SDS011;69532;37.974;23.708;2024-02-23T10:50:01;16.88;;;11.13;;
80215;SDS011;69532;37.974;23.708;2024-02-23T10:52:30;18.27;;;12.25;;
80215;SDS011;69532;37.974;23.708;2024-02-23T10:55:00;17.92;;;13.05;;
80215;SDS011;69532;37.974;23.708;2024-02-23T10:57:28;18.38;;;12.48;;
80215;SDS011;69532;37.974;23.708;2024-02-23T10:59:55;16.70;;;11.20;;
80215;SDS011;69532;37.974;23.708;2024-02-23T11:02:22;20.95;;;12.23;;
80215;SDS011;69532;37.974;23.708;2024-02-23T11:04:51;17.85;;;11.68;;
80215;SDS011;69532;37.974;23.708;2024-02-23T11:07:20;19.63;;;12.20;;
80215;SDS011;69532;37.974;23.708;2024-02-23T11:09:51;18.80;;;11.95;;
80215;SDS011;69532;37.974;23.708;2024-02-23T11:12:22;15.77;;;11.38;;
80215;SDS011;69532;37.974;23.708;2024-02-23T11:14:57;24.35;;;13.25;;
80215;SDS011;69532;37.974;23.708;2024-02-23T11:17:27;18.33;;;12.15;;
80215;SDS011;69532;37.974;23.708;2024-02-23T11:19:58;12.93;;;9.32;;
80215;SDS011;69532;37.974;23.708;2024-02-23T11:22:31;14.75;;;9.73;;
80215;SDS011;69532;37.974;23.708;2024-02-23T11:25:00;16.13;;;10.52;;
80215;SDS011;69532;37.974;23.708;2024-02-23T11:27:40;14.85;;;9.18;;
80215;SDS011;69532;37.974;23.708;2024-02-23T11:30:09;15.23;;;10.85;;
80215;SDS011;69532;37.974;23.708;2024-02-23T11:32:40;15.52;;;12.68;;
80215;SDS011;69532;37.974;23.708;2024-02-23T11:35:10;15.55;;;9.98;;
80215;SDS011;69532;37.974;23.708;2024-02-23T11:37:44;15.68;;;11.02;;
80215;SDS011;69532;37.974;23.708;2024-02-23T11:40:27;18.60;;;10.82;;
80215;SDS011;69532;37.974;23.708;2024-02-23T11:42:57;18.50;;;11.27;;
80215;SDS011;69532;37.974;23.708;2024-02-23T11:45:25;14.02;;;10.23;;
80215;SDS011;69532;37.974;23.708;2024-02-23T11:47:54;18.70;;;11.45;;
80215;SDS011;69532;37.974;23.708;2024-02-23T11:50:20;16.15;;;9.68;;
80215;SDS011;69532;37.974;23.708;2024-02-23T11:52:46;13.15;;;9.63;;
80215;SDS011;69532;37.974;23.708;2024-02-23T11:55:17;15.30;;;10.45;;
80215;SDS011;69532;37.974;23.708;2024-02-23T11:57:49;17.80;;;10.60;;
80215;SDS011;69532;37.974;23.708;2024-02-23T12:00:16;18.15;;;10.55;;
80215;SDS011;69532;37.974;23.708;2024-02-23T12:02:45;16.45;;;10.77;;
80215;SDS011;69532;37.974;23.708;2024-02-23T12:05:16;17.75;;;11.55;;
80215;SDS011;69532;37.974;23.708;2024-02-23T12:07:42;14.85;;;10.93;;
80215;SDS011;69532;37.974;23.708;2024-02-23T12:10:08;15.85;;;10.68;;
80215;SDS011;69532;37.974;23.708;2024-02-23T12:12:36;13.70;;;9.93;;
80215;SDS011;69532;37.974;23.708;2024-02-23T12:15:03;16.75;;;10.68;;
80215;SDS011;69532;37.974;23.708;2024-02-23T12:17:29;14.23;;;10.50;;
80215;SDS011;69532;37.974;23.708;2024-02-23T12:19:59;13.88;;;10.50;;
80215;SDS011;69532;37.974;23.708;2024-02-23T12:22:25;13.35;;;10.32;;
80215;SDS011;69532;37.974;23.708;2024-02-23T12:24:52;13.30;;;10.23;;
80215;SDS011;69532;37.974;23.708;2024-02-23T12:27:18;12.75;;;10.15;;
80215;SDS011;69532;37.974;23.708;2024-02-23T12:29:51;12.15;;;9.90;;
80215;SDS011;69532;37.974;23.708;2024-02-23T12:32:19;15.70;;;10.73;;
80215;SDS011;69532;37.974;23.708;2024-02-23T12:34:46;14.25;;;11.27;;
80215;SDS011;69532;37.974;23.708;2024-02-23T12:37:16;13.73;;;9.93;;
80215;SDS011;69532;37.974;23.708;2024-02-23T12:39:43;11.15;;;9.90;;
80215;SDS011;69532;37.974;23.708;2024-02-23T12:42:10;11.82;;;9.27;;
80215;SDS011;69532;37.974;23.708;2024-02-23T12:44:36;12.38;;;9.65;;
80215;SDS011;69532;37.974;23.708;2024-02-23T12:47:02;11.35;;;8.90;;
80215;SDS011;69532;37.974;23.708;2024-02-23T12:49:28;10.80;;;8.95;;
80215;SDS011;69532;37.974;23.708;2024-02-23T12:51:55;13.82;;;9.52;;
80215;SDS011;69532;37.974;23.708;2024-02-23T12:54:22;12.50;;;9.35;;
80215;SDS011;69532;37.974;23.708;2024-02-23T12:56:48;11.43;;;8.95;;
80215;SDS011;69532;37.974;23.708;2024-02-23T12:59:15;12.20;;;9.45;;
80215;SDS011;69532;37.974;23.708;2024-02-23T13:01:41;15.43;;;10.63;;
80215;SDS011;69532;37.974;23.708;2024-02-23T13:04:07;11.68;;;9.40;;
80215;SDS011;69532;37.974;23.708;2024-02-23T13:06:38;9.88;;;8.88;;
80215;SDS011;69532;37.974;23.708;2024-02-23T13:09:05;14.82;;;9.88;;
80215;SDS011;69532;37.974;23.708;2024-02-23T13:11:37;11.80;;;9.38;;
80215;SDS011;69532;37.974;23.708;2024-02-23T13:14:04;10.18;;;9.07;;
80215;SDS011;69532;37.974;23.708;2024-02-23T13:16:30;11.13;;;9.32;;
80215;SDS011;69532;37.974;23.708;2024-02-23T13:18:56;9.95;;;8.13;;
80215;SDS011;69532;37.974;23.708;2024-02-23T13:21:22;9.55;;;8.55;;
80215;SDS011;69532;37.974;23.708;2024-02-23T13:23:49;10.38;;;8.88;;
80215;SDS011;69532;37.974;23.708;2024-02-23T13:26:15;14.85;;;10.30;;
80215;SDS011;69532;37.974;23.708;2024-02-23T13:28:42;9.32;;;8.07;;
80215;SDS011;69532;37.974;23.708;2024-02-23T13:31:09;11.60;;;8.13;;
80215;SDS011;69532;37.974;23.708;2024-02-23T13:33:36;11.90;;;8.57;;
80215;SDS011;69532;37.974;23.708;2024-02-23T13:36:02;12.73;;;9.43;;
80215;SDS011;69532;37.974;23.708;2024-02-23T13:38:28;10.15;;;8.73;;
80215;SDS011;69532;37.974;23.708;2024-02-23T13:40:54;11.00;;;8.38;;
80215;SDS011;69532;37.974;23.708;2024-02-23T13:43:20;10.50;;;8.13;;
80215;SDS011;69532;37.974;23.708;2024-02-23T13:45:50;8.70;;;7.25;;
80215;SDS011;69532;37.974;23.708;2024-02-23T13:48:17;10.00;;;7.82;;
80215;SDS011;69532;37.974;23.708;2024-02-23T13:50:44;11.52;;;7.13;;
80215;SDS011;69532;37.974;23.708;2024-02-23T13:53:14;9.40;;;7.03;;
80215;SDS011;69532;37.974;23.708;2024-02-23T13:55:41;12.07;;;8.05;;
80215;SDS011;69532;37.974;23.708;2024-02-23T13:58:10;10.68;;;8.07;;
80215;SDS011;69532;37.974;23.708;2024-02-23T14:00:37;8.77;;;7.47;;
80215;SDS011;69532;37.974;23.708;2024-02-23T14:03:03;9.93;;;7.65;;
80215;SDS011;69532;37.974;23.708;2024-02-23T14:05:30;12.07;;;7.63;;
80215;SDS011;69532;37.974;23.708;2024-02-23T14:07:56;14.40;;;10.65;;
80215;SDS011;69532;37.974;23.708;2024-02-23T14:10:22;9.15;;;6.78;;